Time;durP1;ratioP1;P1;durP2;ratioP2;P2;SDS_P1;SDS_P2;PMS_P1;PMS_P2;Temp;Humidity;BMP_temperature;BMP_pressure;BME280_temperature;BME280_humidity;BME280_pressure;Samples;Min_cycle;Max_cycle;Signal;HPM_P1;HPM_P2
2022/06/21 00:00:34;;;;;;;6.45;2.38;;;;;;;;;;6282845;28;20048;-62
2022/06/21 00:03:36;;;;;;;4.90;2.75;;;;;;;;;;6277636;28;20088;-61
2022/06/21 00:06:37;;;;;;;4.32;2.38;;;;;;;;;;6280685;28;20620;-62
2022/06/21 00:09:38;;;;;;;5.55;2.90;;;;;;;;;;6280313;28;20131;-61
2022/06/21 00:12:38;;;;;;;4.70;2.47;;;;;;;;;;6285675;28;20052;-61
2022/06/21 00:15:40;;;;;;;3.97;2.50;;;;;;;;;;6283854;28;20053;-61
2022/06/21 00:18:42;;;;;;;3.92;2.50;;;;;;;;;;6277474;28;20506;-62
2022/06/21 00:21:43;;;;;;;3.83;2.17;;;;;;;;;;6284718;28;20044;-62
2022/06/21 00:24:44;;;;;;;3.72;2.13;;;;;;;;;;6283659;28;20479;-62
2022/06/21 00:27:46;;;;;;;5.80;2.73;;;;;;;;;;6280273;28;20032;-60
2022/06/21 00:30:49;;;;;;;4.73;2.73;;;;;;;;;;6277343;28;20328;-62
2022/06/21 00:33:50;;;;;;;5.45;3.33;;;;;;;;;;6281564;28;20300;-62
2022/06/21 00:36:51;;;;;;;5.22;2.72;;;;;;;;;;6284321;28;20052;-62
2022/06/21 00:39:52;;;;;;;5.15;2.92;;;;;;;;;;6286006;28;20083;-61
2022/06/21 00:42:58;;;;;;;5.50;2.63;;;;;;;;;;6281487;28;20467;-62
2022/06/21 00:46:01;;;;;;;5.60;2.80;;;;;;;;;;6285857;28;20099;-62
2022/06/21 00:49:02;;;;;;;5.50;2.90;;;;;;;;;;6279228;28;20902;-62
2022/06/21 00:52:13;;;;;;;6.07;2.95;;;;;;;;;;6281976;28;20079;-63
2022/06/21 00:55:36;;;;;;;5.70;3.05;;;;;;;;;;6279592;28;20057;-61
2022/06/21 00:58:36;;;;;;;6.57;3.60;;;;;;;;;;6284226;28;20061;-62
2022/06/21 01:01:37;;;;;;;7.40;3.88;;;;;;;;;;6284376;28;20032;-62
2022/06/21 01:04:47;;;;;;;7.82;3.50;;;;;;;;;;6283062;28;20055;-61
2022/06/21 01:07:48;;;;;;;7.93;3.67;;;;;;;;;;6283856;28;20045;-61
2022/06/21 01:10:52;;;;;;;8.63;3.83;;;;;;;;;;6281602;28;20048;-61
2022/06/21 01:13:57;;;;;;;5.50;3.38;;;;;;;;;;6287619;28;20143;-61
2022/06/21 01:16:59;;;;;;;6.78;3.65;;;;;;;;;;6283303;28;20457;-62
2022/06/21 01:20:12;;;;;;;9.02;4.07;;;;;;;;;;6286146;28;20612;-61
2022/06/21 01:23:34;;;;;;;6.55;3.90;;;;;;;;;;6289692;28;20044;-61
2022/06/21 01:26:47;;;;;;;7.10;4.35;;;;;;;;;;6287290;28;20064;-61
2022/06/21 01:29:48;;;;;;;7.70;4.35;;;;;;;;;;6291413;28;20032;-61
2022/06/21 01:32:50;;;;;;;6.45;4.22;;;;;;;;;;6287949;28;20047;-61
2022/06/21 01:35:52;;;;;;;;;;;;;;;;;;6285880;28;20056;-63
2022/06/21 01:39:00;;;;;;;7.63;4.93;;;;;;;;;;6287210;28;20018;-62
2022/06/21 01:42:05;;;;;;;7.00;4.45;;;;;;;;;;6290601;28;20098;-62
2022/06/21 01:45:12;;;;;;;7.93;4.32;;;;;;;;;;6289949;28;20076;-62
2022/06/21 01:48:22;;;;;;;7.97;4.60;;;;;;;;;;6288335;28;20040;-62
2022/06/21 01:51:27;;;;;;;7.57;4.57;;;;;;;;;;6287603;28;20552;-62
2022/06/21 01:54:33;;;;;;;7.20;4.55;;;;;;;;;;6297508;28;20135;-62
2022/06/21 01:57:34;;;;;;;7.55;4.50;;;;;;;;;;6288759;28;20093;-62
2022/06/21 02:00:37;;;;;;;7.60;4.72;;;;;;;;;;6285653;28;20131;-62
2022/06/21 02:03:39;;;;;;;8.68;4.90;;;;;;;;;;6288901;28;20044;-62
2022/06/21 02:06:43;;;;;;;7.85;4.65;;;;;;;;;;6287818;28;20040;-62
2022/06/21 02:10:05;;;;;;;10.02;5.35;;;;;;;;;;6290685;28;20064;-62
2022/06/21 02:13:12;;;;;;;9.30;5.40;;;;;;;;;;6289079;28;20032;-61
2022/06/21 02:16:17;;;;;;;11.32;5.47;;;;;;;;;;6288384;28;20074;-62
2022/06/21 02:19:31;;;;;;;11.38;4.93;;;;;;;;;;6288537;28;20056;-61
2022/06/21 02:22:34;;;;;;;8.95;4.78;;;;;;;;;;6287389;28;20037;-62
2022/06/21 02:25:34;;;;;;;8.60;4.60;;;;;;;;;;6286343;28;20458;-62
2022/06/21 02:28:35;;;;;;;8.18;4.68;;;;;;;;;;6283181;28;20043;-62
2022/06/21 02:31:36;;;;;;;8.55;5.47;;;;;;;;;;6287008;28;20571;-62
2022/06/21 02:34:39;;;;;;;8.18;4.70;;;;;;;;;;6290249;28;20098;-62
2022/06/21 02:37:41;;;;;;;8.32;5.32;;;;;;;;;;6287703;28;20045;-62
2022/06/21 02:40:51;;;;;;;8.15;5.38;;;;;;;;;;6282924;28;20115;-62
2022/06/21 02:43:56;;;;;;;9.73;5.57;;;;;;;;;;6283713;28;20451;-61
2022/06/21 02:47:04;;;;;;;8.32;5.18;;;;;;;;;;6286644;28;20180;-62
2022/06/21 02:50:22;;;;;;;9.60;5.70;;;;;;;;;;6288834;28;20079;-62
2022/06/21 02:53:30;;;;;;;8.75;6.00;;;;;;;;;;6284462;28;20122;-62
2022/06/21 02:57:13;;;;;;;7.28;5.05;;;;;;;;;;6285791;28;20048;-62
2022/06/21 03:00:17;;;;;;;9.43;5.45;;;;;;;;;;6259158;28;20080;-61
2022/06/21 03:03:25;;;;;;;9.45;5.82;;;;;;;;;;6281859;28;20140;-63
2022/06/21 03:06:29;;;;;;;10.05;6.07;;;;;;;;;;6289754;28;20056;-63
2022/06/21 03:09:31;;;;;;;9.80;5.28;;;;;;;;;;6288096;28;20059;-61
2022/06/21 03:12:33;;;;;;;8.85;5.32;;;;;;;;;;6283631;28;20155;-63
2022/06/21 03:15:35;;;;;;;;;;;;;;;;;;6282774;28;20071;-62
2022/06/21 03:18:49;;;;;;;9.85;5.20;;;;;;;;;;6284513;28;20398;-63
2022/06/21 03:21:50;;;;;;;8.50;5.30;;;;;;;;;;6284047;28;20045;-63
2022/06/21 03:24:54;;;;;;;9.23;5.80;;;;;;;;;;6284756;28;21653;-63
2022/06/21 03:27:57;;;;;;;8.75;5.53;;;;;;;;;;6280192;28;20901;-62
2022/06/21 03:31:16;;;;;;;11.00;5.75;;;;;;;;;;6286975;28;20082;-63
2022/06/21 03:34:20;;;;;;;10.98;6.35;;;;;;;;;;6283142;28;20071;-63
2022/06/21 03:37:21;;;;;;;9.40;6.30;;;;;;;;;;6286724;28;20590;-64
2022/06/21 03:43:49;;;;;;;10.50;6.28;;;;;;;;;;6283024;28;20037;-63
2022/06/21 03:47:10;;;;;;;10.88;6.50;;;;;;;;;;6282264;28;20156;-63
2022/06/21 03:50:18;;;;;;;10.77;6.15;;;;;;;;;;6282434;28;20076;-63
2022/06/21 03:53:27;;;;;;;10.77;6.07;;;;;;;;;;6290279;28;20533;-63
2022/06/21 03:56:34;;;;;;;10.60;6.40;;;;;;;;;;6295722;28;20083;-63
2022/06/21 03:59:42;;;;;;;10.02;6.20;;;;;;;;;;6302528;28;20045;-63
2022/06/21 04:03:17;;;;;;;12.05;6.30;;;;;;;;;;6285452;28;20053;-63
2022/06/21 04:06:28;;;;;;;13.68;6.35;;;;;;;;;;6289773;28;20093;-63
2022/06/21 04:09:42;;;;;;;9.65;6.20;;;;;;;;;;6287985;28;20696;-63
2022/06/21 04:13:11;;;;;;;12.07;5.93;;;;;;;;;;6280888;28;20049;-62
2022/06/21 04:16:27;;;;;;;8.95;6.13;;;;;;;;;;6278825;28;20068;-63
2022/06/21 04:19:40;;;;;;;10.85;6.55;;;;;;;;;;6288715;28;20053;-63
2022/06/21 04:23:13;;;;;;;11.02;6.72;;;;;;;;;;6284353;28;20071;-63
2022/06/21 04:26:29;;;;;;;;;;;;;;;;;;6284679;28;20052;-63
2022/06/21 04:29:54;;;;;;;15.10;7.88;;;;;;;;;;6278434;28;20462;-63
2022/06/21 04:33:05;;;;;;;13.00;7.28;;;;;;;;;;6280997;28;20075;-62
2022/06/21 04:36:16;;;;;;;13.88;7.53;;;;;;;;;;6283718;28;20140;-63
2022/06/21 04:39:29;;;;;;;14.95;7.68;;;;;;;;;;6274668;28;20041;-65
2022/06/21 04:42:34;;;;;;;10.85;6.82;;;;;;;;;;6287355;28;20121;-63
2022/06/21 04:45:37;;;;;;;11.30;6.85;;;;;;;;;;6286610;28;20055;-63
2022/06/21 04:48:54;;;;;;;12.93;6.68;;;;;;;;;;6286697;28;20510;-62
2022/06/21 04:52:01;;;;;;;15.00;7.05;;;;;;;;;;6283691;28;20179;-63
2022/06/21 04:55:04;;;;;;;11.70;6.75;;;;;;;;;;6286792;28;20103;-63
2022/06/21 04:58:04;;;;;;;12.40;6.68;;;;;;;;;;6283952;28;20052;-63
2022/06/21 05:01:29;;;;;;;13.23;7.40;;;;;;;;;;6284043;28;20053;-63
2022/06/21 05:04:39;;;;;;;13.32;6.93;;;;;;;;;;6282386;28;20048;-63
2022/06/21 05:07:50;;;;;;;11.80;6.53;;;;;;;;;;6285753;28;20041;-63
2022/06/21 05:10:55;;;;;;;9.85;6.40;;;;;;;;;;6279837;28;20052;-62
2022/06/21 05:13:58;;;;;;;8.25;5.93;;;;;;;;;;6282970;28;20040;-63
2022/06/21 05:16:59;;;;;;;8.73;6.15;;;;;;;;;;6283858;28;20075;-62
2022/06/21 05:20:05;;;;;;;12.13;6.32;;;;;;;;;;6287645;28;20453;-62
2022/06/21 05:23:10;;;;;;;10.57;6.00;;;;;;;;;;6285833;28;20078;-63
2022/06/21 05:26:24;;;;;;;12.40;5.75;;;;;;;;;;6285872;28;20045;-63
2022/06/21 05:29:34;;;;;;;7.97;5.70;;;;;;;;;;6283396;28;20044;-62
2022/06/21 05:32:46;;;;;;;9.20;5.22;;;;;;;;;;6284551;28;20047;-63
2022/06/21 05:35:48;;;;;;;8.85;5.28;;;;;;;;;;6286353;28;20048;-62
2022/06/21 05:38:55;;;;;;;10.10;5.88;;;;;;;;;;6283773;28;20091;-63
2022/06/21 05:41:58;;;;;;;9.00;4.70;;;;;;;;;;6285034;28;20052;-63
2022/06/21 05:45:06;;;;;;;7.32;4.55;;;;;;;;;;6284698;28;20141;-62
2022/06/21 05:48:17;;;;;;;7.13;4.75;;;;;;;;;;6283519;28;20048;-63
2022/06/21 05:51:32;;;;;;;6.95;4.10;;;;;;;;;;6286846;28;20040;-62
2022/06/21 05:54:41;;;;;;;7.53;3.63;;;;;;;;;;6284799;28;20147;-63
2022/06/21 05:57:53;;;;;;;6.10;4.03;;;;;;;;;;6282107;28;20127;-63
2022/06/21 06:00:59;;;;;;;6.43;4.17;;;;;;;;;;6286751;28;20044;-62
2022/06/21 06:04:02;;;;;;;8.15;4.38;;;;;;;;;;6278122;28;20421;-63
2022/06/21 06:07:04;;;;;;;8.90;4.30;;;;;;;;;;6289108;28;20032;-63
2022/06/21 06:10:06;;;;;;;7.13;4.10;;;;;;;;;;6293681;28;20071;-63
2022/06/21 06:13:20;;;;;;;6.75;5.18;;;;;;;;;;6291878;28;20044;-63
2022/06/21 06:16:24;;;;;;;8.65;4.40;;;;;;;;;;6291460;28;20103;-62
2022/06/21 06:19:34;;;;;;;7.80;3.80;;;;;;;;;;6288030;28;20422;-63
2022/06/21 06:22:38;;;;;;;9.00;4.22;;;;;;;;;;6285223;28;20064;-63
2022/06/21 06:25:53;;;;;;;6.90;3.70;;;;;;;;;;6293376;28;20048;-63
2022/06/21 06:29:03;;;;;;;7.60;3.50;;;;;;;;;;6279498;28;20056;-63
2022/06/21 06:32:11;;;;;;;7.70;3.05;;;;;;;;;;6289162;28;20483;-63
2022/06/21 06:35:20;;;;;;;5.72;3.22;;;;;;;;;;6291323;28;20395;-63
2022/06/21 06:38:21;;;;;;;9.15;3.50;;;;;;;;;;6289856;28;20044;-63
2022/06/21 06:41:29;;;;;;;5.07;2.90;;;;;;;;;;6286176;28;20051;-63
2022/06/21 06:44:36;;;;;;;5.40;2.97;;;;;;;;;;6289091;28;20048;-64
2022/06/21 06:47:46;;;;;;;4.88;2.60;;;;;;;;;;6288884;28;20044;-64
2022/06/21 06:51:15;;;;;;;6.60;2.60;;;;;;;;;;6286175;28;20049;-63
2022/06/21 06:55:13;;;;;;;7.10;3.17;;;;;;;;;;6284577;28;20570;-63
2022/06/21 06:58:23;;;;;;;7.68;2.92;;;;;;;;;;6266672;28;20041;-63
2022/06/21 07:01:38;;;;;;;5.57;2.70;;;;;;;;;;6285922;28;20479;-63
2022/06/21 07:04:42;;;;;;;4.32;2.50;;;;;;;;;;6290863;28;20541;-63
2022/06/21 07:08:00;;;;;;;5.18;2.38;;;;;;;;;;6291208;28;20071;-63
2022/06/21 07:11:09;;;;;;;7.05;2.30;;;;;;;;;;6282816;28;20040;-64
2022/06/21 07:14:21;;;;;;;3.97;2.22;;;;;;;;;;6282783;28;20088;-63
2022/06/21 07:17:37;;;;;;;5.60;2.35;;;;;;;;;;6282670;28;20092;-63
2022/06/21 07:20:42;;;;;;;11.23;2.42;;;;;;;;;;6282722;28;20068;-64
2022/06/21 07:23:44;;;;;;;5.88;2.40;;;;;;;;;;6282741;28;20060;-63
2022/06/21 07:26:53;;;;;;;4.93;2.70;;;;;;;;;;6285566;28;20113;-64
2022/06/21 07:30:01;;;;;;;4.40;2.60;;;;;;;;;;6287133;28;20033;-63
2022/06/21 07:33:08;;;;;;;4.50;2.10;;;;;;;;;;6284607;28;20044;-63
2022/06/21 07:36:18;;;;;;;8.95;2.45;;;;;;;;;;6284574;28;20415;-63
2022/06/21 07:39:25;;;;;;;4.90;2.55;;;;;;;;;;6285502;28;20518;-63
2022/06/21 07:43:07;;;;;;;4.78;2.13;;;;;;;;;;6287646;28;20072;-63
2022/06/21 07:46:14;;;;;;;4.40;2.17;;;;;;;;;;6219980;28;20288;-63
2022/06/21 07:49:23;;;;;;;3.60;2.30;;;;;;;;;;6286666;28;20433;-63
2022/06/21 07:52:32;;;;;;;5.00;2.42;;;;;;;;;;6284596;28;20144;-64
2022/06/21 07:55:41;;;;;;;4.10;2.25;;;;;;;;;;6285584;28;20052;-63
2022/06/21 07:58:51;;;;;;;6.07;2.33;;;;;;;;;;6288015;28;20531;-64
2022/06/21 08:09:18;;;;;;;4.55;2.20;;;;;;;;;;6285493;28;20068;-63
2022/06/21 08:12:19;;;;;;;5.97;2.67;;;;;;;;;;6285751;28;20044;-64
2022/06/21 08:15:25;;;;;;;6.80;2.40;;;;;;;;;;6285120;28;20495;-63
2022/06/21 08:18:48;;;;;;;5.50;3.10;;;;;;;;;;6284540;28;20129;-64
2022/06/21 08:21:58;;;;;;;4.47;2.30;;;;;;;;;;6285513;28;20059;-64
2022/06/21 08:25:13;;;;;;;6.13;2.65;;;;;;;;;;6286367;28;20144;-63
2022/06/21 08:28:31;;;;;;;8.13;3.17;;;;;;;;;;6285319;28;20041;-64
2022/06/21 08:31:36;;;;;;;6.57;3.20;;;;;;;;;;6281017;28;20048;-64
2022/06/21 08:34:45;;;;;;;5.28;2.30;;;;;;;;;;6285320;28;20049;-64
2022/06/21 08:37:56;;;;;;;7.68;2.45;;;;;;;;;;6285498;28;20079;-63
2022/06/21 08:41:57;;;;;;;4.47;2.20;;;;;;;;;;6283469;28;20509;-64
2022/06/21 08:45:41;;;;;;;5.82;2.38;;;;;;;;;;6190924;28;20080;-64
2022/06/21 08:48:50;;;;;;;5.35;2.60;;;;;;;;;;6215724;28;20500;-64
2022/06/21 08:52:25;;;;;;;6.90;2.90;;;;;;;;;;6279146;28;20040;-64
2022/06/21 08:55:47;;;;;;;7.40;2.75;;;;;;;;;;6282922;28;20466;-64
2022/06/21 08:59:12;;;;;;;3.85;2.20;;;;;;;;;;6284254;28;20094;-63
2022/06/21 09:02:16;;;;;;;10.63;8.85;;;;;;;;;;6283273;28;20502;-64
2022/06/21 09:05:57;;;;;;;4.75;2.40;;;;;;;;;;6283147;28;20048;-63
2022/06/21 09:09:07;;;;;;;3.38;2.08;;;;;;;;;;6284754;28;20134;-62
2022/06/21 09:12:29;;;;;;;4.70;2.38;;;;;;;;;;6286651;28;20102;-63
2022/06/21 09:15:50;;;;;;;4.95;2.60;;;;;;;;;;6263396;28;20129;-62
2022/06/21 09:19:52;;;;;;;3.22;2.33;;;;;;;;;;6268383;28;20098;-61
2022/06/21 09:23:12;;;;;;;5.25;2.58;;;;;;;;;;6222533;28;20167;-61
2022/06/21 09:26:36;;;;;;;6.15;2.45;;;;;;;;;;6229360;28;20121;-61
2022/06/21 09:30:02;;;;;;;4.60;2.42;;;;;;;;;;6266760;28;20109;-61
2022/06/21 09:33:28;;;;;;;4.78;2.50;;;;;;;;;;6263159;28;20080;-62
2022/06/21 09:36:44;;;;;;;4.75;2.35;;;;;;;;;;6265716;28;20083;-62
2022/06/21 09:40:09;;;;;;;3.67;2.15;;;;;;;;;;6267295;28;20545;-61
2022/06/21 09:43:33;;;;;;;6.63;2.33;;;;;;;;;;6267596;28;20076;-61
2022/06/21 09:46:47;;;;;;;6.25;2.75;;;;;;;;;;6274275;28;20057;-61
2022/06/21 09:50:04;;;;;;;7.95;2.70;;;;;;;;;;6273088;28;20036;-63
2022/06/21 09:53:18;;;;;;;3.40;2.15;;;;;;;;;;6269749;28;20048;-62
2022/06/21 09:56:43;;;;;;;3.08;2.20;;;;;;;;;;6271195;28;20049;-63
2022/06/21 10:00:04;;;;;;;6.60;2.15;;;;;;;;;;6269439;28;20931;-62
2022/06/21 10:03:31;;;;;;;3.45;2.30;;;;;;;;;;6268404;28;20059;-62
2022/06/21 10:06:43;;;;;;;3.67;2.28;;;;;;;;;;6269911;28;20048;-62
2022/06/21 10:10:03;;;;;;;4.63;2.40;;;;;;;;;;6270860;28;20045;-62
2022/06/21 10:13:24;;;;;;;5.03;2.75;;;;;;;;;;6236876;28;20186;-62
2022/06/21 10:16:37;;;;;;;3.85;2.53;;;;;;;;;;6269275;28;20048;-62
2022/06/21 10:20:10;;;;;;;4.78;2.60;;;;;;;;;;6270099;28;20526;-62
2022/06/21 10:23:35;;;;;;;6.40;2.70;;;;;;;;;;6264382;28;20135;-62
2022/06/21 10:27:01;;;;;;;5.50;2.90;;;;;;;;;;6269139;28;20060;-62
2022/06/21 10:30:15;;;;;;;4.43;2.17;;;;;;;;;;6273136;28;20048;-63
2022/06/21 10:33:31;;;;;;;4.07;2.45;;;;;;;;;;6270460;28;20549;-63
2022/06/21 10:36:50;;;;;;;7.15;2.40;;;;;;;;;;6267473;28;20087;-63
2022/06/21 10:40:33;;;;;;;4.82;2.45;;;;;;;;;;6271114;28;20594;-63
2022/06/21 10:43:39;;;;;;;;;;;;;;;;;;6266405;28;20684;-63
2022/06/21 10:46:49;;;;;;;5.63;2.50;;;;;;;;;;6269770;28;20059;-63
2022/06/21 10:50:01;;;;;;;4.07;2.45;;;;;;;;;;6270837;28;20790;-62
2022/06/21 10:53:26;;;;;;;4.25;2.30;;;;;;;;;;6265080;28;20463;-63
2022/06/21 11:04:20;;;;;;;6.82;2.83;;;;;;;;;;6261823;28;20079;-62
2022/06/21 11:07:24;;;;;;;;;;;;;;;;;;6268388;28;20120;-63
2022/06/21 11:10:29;;;;;;;5.07;2.75;;;;;;;;;;6270766;28;19928;-62
2022/06/21 11:13:40;;;;;;;5.18;2.60;;;;;;;;;;6268569;28;20503;-63
2022/06/21 11:17:05;;;;;;;5.00;2.60;;;;;;;;;;6273342;28;20101;-63
2022/06/21 11:20:15;;;;;;;4.30;2.88;;;;;;;;;;6268836;28;20081;-62
2022/06/21 11:23:18;;;;;;;6.75;2.75;;;;;;;;;;6266576;28;20516;-62
2022/06/21 11:26:41;;;;;;;4.38;2.60;;;;;;;;;;6270263;28;20083;-62
2022/06/21 11:30:06;;;;;;;6.07;2.50;;;;;;;;;;6266467;28;20049;-62
2022/06/21 11:33:45;;;;;;;6.20;2.55;;;;;;;;;;6263500;28;20044;-62
2022/06/21 11:37:06;;;;;;;4.18;3.00;;;;;;;;;;6264699;28;20478;-63
2022/06/21 11:40:31;;;;;;;5.63;2.60;;;;;;;;;;6259679;28;20048;-62
2022/06/21 11:43:40;;;;;;;4.90;2.70;;;;;;;;;;6266549;28;20080;-63
2022/06/21 11:46:49;;;;;;;6.13;2.85;;;;;;;;;;6269151;28;20069;-62
2022/06/21 11:50:23;;;;;;;6.38;2.55;;;;;;;;;;6270036;28;20079;-63
2022/06/21 11:53:46;;;;;;;8.13;3.00;;;;;;;;;;6263482;28;20534;-62
2022/06/21 11:57:13;;;;;;;4.70;3.10;;;;;;;;;;6269398;28;20052;-62
2022/06/21 12:00:35;;;;;;;4.88;2.47;;;;;;;;;;6266422;28;20128;-62
2022/06/21 12:03:55;;;;;;;5.57;2.45;;;;;;;;;;6264131;28;20671;-62
2022/06/21 12:07:05;;;;;;;4.75;2.60;;;;;;;;;;6272513;28;20533;-62
2022/06/21 12:10:10;;;;;;;5.00;2.50;;;;;;;;;;6265953;28;20048;-62
2022/06/21 12:13:13;;;;;;;7.88;2.88;;;;;;;;;;6263049;28;20079;-64
2022/06/21 12:16:43;;;;;;;4.72;2.40;;;;;;;;;;6268908;28;20048;-62
2022/06/21 12:19:45;;;;;;;3.70;2.38;;;;;;;;;;6266014;28;20127;-63
2022/06/21 12:23:06;;;;;;;4.00;2.78;;;;;;;;;;6265820;28;20764;-63
2022/06/21 12:26:23;;;;;;;8.68;3.20;;;;;;;;;;6270494;28;20427;-63
2022/06/21 12:29:25;;;;;;;6.53;3.10;;;;;;;;;;6269629;28;20075;-62
2022/06/21 12:32:27;;;;;;;10.10;3.17;;;;;;;;;;6265670;28;20041;-61
2022/06/21 12:35:56;;;;;;;4.55;2.50;;;;;;;;;;6267720;28;20044;-63
2022/06/21 12:39:04;;;;;;;8.80;3.10;;;;;;;;;;6265626;28;20080;-62
2022/06/21 12:42:41;;;;;;;4.55;2.50;;;;;;;;;;6264874;28;20726;-62
2022/06/21 12:45:54;;;;;;;5.72;2.60;;;;;;;;;;6265020;28;20062;-63
2022/06/21 12:49:32;;;;;;;5.57;2.58;;;;;;;;;;6267971;28;20063;-63
2022/06/21 12:52:47;;;;;;;5.93;2.95;;;;;;;;;;6261789;28;20083;-62
2022/06/21 12:56:06;;;;;;;5.40;2.58;;;;;;;;;;6265970;28;20044;-62
2022/06/21 12:59:24;;;;;;;4.88;2.78;;;;;;;;;;6264631;28;20498;-63
2022/06/21 13:02:35;;;;;;;4.68;2.63;;;;;;;;;;6266802;28;20174;-63
2022/06/21 13:05:39;;;;;;;4.38;2.70;;;;;;;;;;6265890;28;20043;-62
2022/06/21 13:08:59;;;;;;;7.40;2.80;;;;;;;;;;6263941;28;20098;-62
2022/06/21 13:12:08;;;;;;;4.50;2.80;;;;;;;;;;6263133;28;20523;-63
2022/06/21 13:15:27;;;;;;;5.05;2.58;;;;;;;;;;6258641;28;20056;-62
2022/06/21 13:19:04;;;;;;;6.97;2.90;;;;;;;;;;6264644;28;20139;-62
2022/06/21 13:22:24;;;;;;;7.88;3.15;;;;;;;;;;6266806;28;20049;-62
2022/06/21 13:25:53;;;;;;;5.50;3.25;;;;;;;;;;6267903;28;20079;-63
2022/06/21 13:29:24;;;;;;;8.10;2.85;;;;;;;;;;6263072;28;20044;-62
2022/06/21 13:32:29;;;;;;;4.73;2.53;;;;;;;;;;6264824;28;20076;-62
2022/06/21 13:36:02;;;;;;;5.45;3.13;;;;;;;;;;6266999;28;20053;-63
2022/06/21 13:39:20;;;;;;;;;;;;;;;;;;6256367;28;20083;-62
2022/06/21 13:42:37;;;;;;;4.60;2.60;;;;;;;;;;6267379;28;19963;-62
2022/06/21 13:45:52;;;;;;;6.93;3.10;;;;;;;;;;6268193;28;20072;-62
2022/06/21 13:48:59;;;;;;;6.78;2.78;;;;;;;;;;6270589;28;20570;-62
2022/06/21 13:52:13;;;;;;;10.15;3.03;;;;;;;;;;6267129;28;20045;-63
2022/06/21 13:55:58;;;;;;;5.55;2.80;;;;;;;;;;6261414;28;20460;-64
2022/06/21 13:59:07;;;;;;;4.90;2.50;;;;;;;;;;6240278;28;20076;-63
2022/06/21 14:02:29;;;;;;;7.43;2.75;;;;;;;;;;6265103;28;20056;-63
2022/06/21 14:05:37;;;;;;;5.68;2.72;;;;;;;;;;6267773;28;20044;-63
2022/06/21 14:08:42;;;;;;;4.25;2.47;;;;;;;;;;6269100;28;20055;-62
2022/06/21 14:11:56;;;;;;;5.68;2.75;;;;;;;;;;6268271;28;20081;-63
2022/06/21 14:15:05;;;;;;;5.90;2.90;;;;;;;;;;6261962;28;20094;-63
2022/06/21 14:18:14;;;;;;;9.27;3.10;;;;;;;;;;6262844;28;21640;-62
2022/06/21 14:21:40;;;;;;;5.68;2.65;;;;;;;;;;6262641;28;20052;-63
2022/06/21 14:25:23;;;;;;;9.13;2.70;;;;;;;;;;6261836;28;20037;-63
2022/06/21 14:28:33;;;;;;;4.82;2.67;;;;;;;;;;6240237;28;20060;-62
2022/06/21 14:31:55;;;;;;;7.05;3.05;;;;;;;;;;6269674;28;20121;-62
2022/06/21 14:35:20;;;;;;;6.20;2.80;;;;;;;;;;6267730;28;20209;-62
2022/06/21 14:38:24;;;;;;;5.50;2.50;;;;;;;;;;6268111;28;20453;-63
2022/06/21 14:41:56;;;;;;;10.27;3.33;;;;;;;;;;6271486;28;20049;-62
2022/06/21 14:45:04;;;;;;;6.25;3.40;;;;;;;;;;6265496;28;20076;-63
2022/06/21 14:48:21;;;;;;;6.03;2.50;;;;;;;;;;6268665;28;20148;-63
2022/06/21 14:51:42;;;;;;;10.98;3.67;;;;;;;;;;6269554;28;20080;-62
2022/06/21 14:54:56;;;;;;;5.78;2.83;;;;;;;;;;6269751;28;20582;-63
2022/06/21 14:58:16;;;;;;;6.40;2.30;;;;;;;;;;6274234;28;20067;-63
2022/06/21 15:01:39;;;;;;;4.45;2.20;;;;;;;;;;6270552;28;20070;-62
2022/06/21 15:04:47;;;;;;;6.75;2.72;;;;;;;;;;6272374;28;20080;-62
2022/06/21 15:08:00;;;;;;;4.55;2.13;;;;;;;;;;6273001;28;20047;-63
2022/06/21 15:11:06;;;;;;;6.13;2.17;;;;;;;;;;6269344;28;20052;-62
2022/06/21 15:14:08;;;;;;;5.82;2.45;;;;;;;;;;6269813;28;20064;-63
2022/06/21 15:17:11;;;;;;;;;;;;;;;;;;6274362;28;20156;-63
2022/06/21 15:20:21;;;;;;;5.15;2.00;;;;;;;;;;6275470;28;20064;-63
2022/06/21 15:23:29;;;;;;;5.60;2.25;;;;;;;;;;6270862;28;20048;-63
2022/06/21 15:26:57;;;;;;;5.07;2.20;;;;;;;;;;6272136;28;20147;-64
2022/06/21 15:29:59;;;;;;;3.97;2.25;;;;;;;;;;6271403;28;20980;-64
2022/06/21 15:33:03;;;;;;;4.95;1.98;;;;;;;;;;6264742;28;20045;-64
2022/06/21 15:36:27;;;;;;;5.28;2.13;;;;;;;;;;6269077;28;20135;-65
2022/06/21 15:39:37;;;;;;;4.35;2.03;;;;;;;;;;6271151;28;20158;-63
2022/06/21 15:42:58;;;;;;;4.13;2.42;;;;;;;;;;6268002;28;21406;-64
2022/06/21 15:46:05;;;;;;;3.15;1.85;;;;;;;;;;6270424;28;20064;-64
2022/06/21 15:53:11;;;;;;;5.57;1.90;;;;;;;;;;6270272;28;20871;-63
2022/06/21 15:56:25;;;;;;;7.40;2.25;;;;;;;;;;6263061;28;20186;-63
2022/06/21 15:59:51;;;;;;;4.53;2.05;;;;;;;;;;6264525;28;20044;-64
2022/06/21 16:03:02;;;;;;;5.07;1.95;;;;;;;;;;6261643;28;20048;-63
2022/06/21 16:06:13;;;;;;;4.45;1.95;;;;;;;;;;6268084;28;20080;-63
2022/06/21 16:09:15;;;;;;;3.83;2.10;;;;;;;;;;6273558;28;20139;-62
2022/06/21 16:12:25;;;;;;;4.20;2.00;;;;;;;;;;6260949;28;21155;-63
2022/06/21 16:15:29;;;;;;;3.75;2.00;;;;;;;;;;6261877;28;20132;-63
2022/06/21 16:18:40;;;;;;;4.07;2.08;;;;;;;;;;6266407;28;20060;-63
2022/06/21 16:21:44;;;;;;;5.50;2.60;;;;;;;;;;6268059;28;20076;-62
2022/06/21 16:24:54;;;;;;;5.95;2.70;;;;;;;;;;6267436;28;20045;-62
2022/06/21 16:28:19;;;;;;;7.03;2.35;;;;;;;;;;6268679;28;20090;-62
2022/06/21 16:34:47;;;;;;;4.78;2.38;;;;;;;;;;6263044;28;20064;-63
2022/06/21 16:37:56;;;;;;;4.75;2.25;;;;;;;;;;6268617;28;20053;-63
2022/06/21 16:44:53;;;;;;;6.63;2.47;;;;;;;;;;6264798;28;20050;-61
2022/06/21 16:47:56;;;;;;;6.22;2.17;;;;;;;;;;6266345;28;20070;-61
2022/06/21 16:51:25;;;;;;;10.88;2.28;;;;;;;;;;6266386;28;20550;-63
2022/06/21 16:54:25;;;;;;;3.42;2.33;;;;;;;;;;6265545;28;20080;-60
2022/06/21 16:57:30;;;;;;;5.13;2.20;;;;;;;;;;6265457;28;20044;-62
2022/06/21 17:00:33;;;;;;;6.32;2.50;;;;;;;;;;6267768;28;20041;-63
2022/06/21 17:03:47;;;;;;;3.38;2.20;;;;;;;;;;6264362;28;20106;-64
2022/06/21 17:07:00;;;;;;;3.90;2.40;;;;;;;;;;6267868;28;20198;-64
2022/06/21 17:10:03;;;;;;;4.60;2.53;;;;;;;;;;6269153;28;20046;-63
2022/06/21 17:13:07;;;;;;;4.90;2.33;;;;;;;;;;6264187;28;20081;-63
2022/06/21 17:16:07;;;;;;;5.05;2.55;;;;;;;;;;6262222;28;20115;-61
2022/06/21 17:19:40;;;;;;;5.15;2.40;;;;;;;;;;6265742;28;20053;-60
2022/06/21 17:22:58;;;;;;;4.15;2.38;;;;;;;;;;6266884;28;20053;-61
2022/06/21 17:26:32;;;;;;;5.03;2.45;;;;;;;;;;6261222;28;20640;-62
2022/06/21 17:30:01;;;;;;;5.15;2.40;;;;;;;;;;6267327;28;20066;-70
2022/06/21 17:33:14;;;;;;;4.65;2.40;;;;;;;;;;6262459;28;20052;-62
2022/06/21 17:36:21;;;;;;;4.88;2.60;;;;;;;;;;6261715;28;20500;-68
2022/06/21 17:39:35;;;;;;;4.00;2.60;;;;;;;;;;6266666;28;20087;-65
2022/06/21 17:42:57;;;;;;;4.53;2.75;;;;;;;;;;6263083;28;20060;-66
2022/06/21 17:46:07;;;;;;;7.60;2.67;;;;;;;;;;6264681;28;20438;-63
2022/06/21 17:49:19;;;;;;;4.18;2.55;;;;;;;;;;6265225;28;20078;-66
2022/06/21 17:52:29;;;;;;;5.75;2.63;;;;;;;;;;6265958;28;20140;-64
2022/06/21 17:55:37;;;;;;;5.38;2.65;;;;;;;;;;6267713;28;20076;-65
2022/06/21 17:58:43;;;;;;;4.80;2.38;;;;;;;;;;6265786;28;20149;-67
2022/06/21 18:02:00;;;;;;;6.35;2.35;;;;;;;;;;6267464;28;20056;-66
2022/06/21 18:05:16;;;;;;;5.35;2.33;;;;;;;;;;6267488;28;20722;-64
2022/06/21 18:08:38;;;;;;;4.32;2.63;;;;;;;;;;6271686;28;20123;-65
2022/06/21 18:12:03;;;;;;;4.15;2.40;;;;;;;;;;6272041;28;20045;-68
2022/06/21 18:15:05;;;;;;;4.93;2.50;;;;;;;;;;6269940;28;20048;-65
2022/06/21 18:18:50;;;;;;;4.25;2.30;;;;;;;;;;6267294;28;20509;-66
2022/06/21 18:22:02;;;;;;;4.18;2.28;;;;;;;;;;6265115;28;20083;-63
2022/06/21 18:25:20;;;;;;;5.43;2.40;;;;;;;;;;6268943;28;20335;-65
2022/06/21 18:29:02;;;;;;;5.00;2.33;;;;;;;;;;6270465;28;20502;-61
2022/06/21 18:32:30;;;;;;;3.95;2.40;;;;;;;;;;6239195;28;20633;-63
2022/06/21 18:35:35;;;;;;;4.57;2.63;;;;;;;;;;6241278;28;20445;-64
2022/06/21 18:39:08;;;;;;;5.28;2.70;;;;;;;;;;6268388;28;20170;-65
2022/06/21 18:42:09;;;;;;;5.13;2.80;;;;;;;;;;6270867;28;20049;-65
2022/06/21 18:45:48;;;;;;;3.77;2.50;;;;;;;;;;6267340;28;20046;-62
2022/06/21 18:49:12;;;;;;;3.92;2.55;;;;;;;;;;6264437;28;20071;-61
2022/06/21 18:52:51;;;;;;;8.07;3.30;;;;;;;;;;6266638;28;20107;-64
2022/06/21 18:56:03;;;;;;;4.75;2.80;;;;;;;;;;6267351;28;20486;-61
2022/06/21 18:59:16;;;;;;;6.78;2.80;;;;;;;;;;6269588;28;20095;-62
2022/06/21 19:02:43;;;;;;;5.78;3.10;;;;;;;;;;6270345;28;20075;-64
2022/06/21 19:09:25;;;;;;;7.40;2.90;;;;;;;;;;6270709;28;20630;-64
2022/06/21 19:12:55;;;;;;;6.53;3.20;;;;;;;;;;6267243;28;20084;-69
2022/06/21 19:16:18;;;;;;;4.78;2.92;;;;;;;;;;6255157;28;20086;-60
2022/06/21 19:19:37;;;;;;;5.55;3.28;;;;;;;;;;6268440;28;20049;-64
2022/06/21 19:22:56;;;;;;;6.53;3.33;;;;;;;;;;6266797;28;20836;-66
2022/06/21 19:26:09;;;;;;;6.18;3.08;;;;;;;;;;6267573;28;20587;-63
2022/06/21 19:29:40;;;;;;;6.15;3.28;;;;;;;;;;6270488;28;20056;-65
2022/06/21 19:32:54;;;;;;;5.30;3.40;;;;;;;;;;6266638;28;20076;-64
2022/06/21 19:36:39;;;;;;;9.02;5.28;;;;;;;;;;6266491;28;20081;-65
2022/06/21 19:39:52;;;;;;;7.05;3.80;;;;;;;;;;6261620;28;20079;-65
2022/06/21 19:43:41;;;;;;;7.57;3.90;;;;;;;;;;6264795;28;20051;-61
2022/06/21 19:46:41;;;;;;;7.88;4.00;;;;;;;;;;6265349;28;20064;-60
2022/06/21 19:49:44;;;;;;;13.15;4.78;;;;;;;;;;6268477;28;20048;-63
2022/06/21 19:52:45;;;;;;;9.82;4.50;;;;;;;;;;6267189;28;20040;-62